createdAt,value
2018-06-12T00:00:43.627Z,15.13
2018-06-12T00:03:12.449Z,23.77
2018-06-12T00:05:41.197Z,20.83
2018-06-12T00:08:10.127Z,16.10
2018-06-12T00:10:39.392Z,23.87
2018-06-12T00:13:08.628Z,19.40
2018-06-12T00:15:37.478Z,21.60
2018-06-12T00:18:06.536Z,18.60
2018-06-12T00:20:35.405Z,27.50
2018-06-12T00:23:04.198Z,24.47
2018-06-12T00:25:33.171Z,15.70
2018-06-12T00:28:02.873Z,23.90
2018-06-12T00:30:31.886Z,16.47
2018-06-12T00:33:02.757Z,31.73
2018-06-12T00:35:31.577Z,10.97
2018-06-12T00:38:00.753Z,18.03
2018-06-12T00:40:29.621Z,25.73
2018-06-12T00:42:58.703Z,15.33
2018-06-12T00:45:32.645Z,23.80
2018-06-12T00:48:01.904Z,33.53
2018-06-12T00:50:31.181Z,10.57
2018-06-12T00:53:00.445Z,21.47
2018-06-12T00:55:29.351Z,17.47
2018-06-12T00:57:58.218Z,15.60
2018-06-12T01:00:27.077Z,13.33
2018-06-12T01:02:56.001Z,13.90
2018-06-12T01:05:25.020Z,11.83
2018-06-12T01:07:54.454Z,16.50
2018-06-12T01:10:23.574Z,14.33
2018-06-12T01:12:52.557Z,10.30
2018-06-12T01:15:21.470Z,12.50
2018-06-12T01:17:50.397Z,14.07
2018-06-12T01:20:19.256Z,14.43
2018-06-12T01:22:48.279Z,16.53
2018-06-12T01:25:17.126Z,20.33
2018-06-12T01:27:45.976Z,24.40
2018-06-12T01:30:15.015Z,14.90
2018-06-12T01:32:44.029Z,20.13
2018-06-12T01:35:13.076Z,14.03
2018-06-12T01:37:42.126Z,12.40
2018-06-12T01:40:11.101Z,14.07
2018-06-12T01:42:39.975Z,11.57
2018-06-12T01:45:09.084Z,19.63
2018-06-12T01:47:38.109Z,25.30
2018-06-12T01:50:07.075Z,10.33
2018-06-12T01:52:35.942Z,14.83
2018-06-12T01:55:04.922Z,12.90
2018-06-12T01:57:33.783Z,16.43
2018-06-12T02:00:02.683Z,9.93
2018-06-12T02:02:31.830Z,19.20
2018-06-12T02:05:01.135Z,13.97
2018-06-12T02:07:30.315Z,15.63
2018-06-12T02:09:59.167Z,11.63
2018-06-12T02:12:28.139Z,17.73
2018-06-12T02:14:56.893Z,8.97
2018-06-12T02:17:25.831Z,20.33
2018-06-12T02:19:54.774Z,8.40
2018-06-12T02:22:23.930Z,8.47
2018-06-12T02:24:52.691Z,13.87
2018-06-12T02:27:21.457Z,12.30
2018-06-12T02:29:50.272Z,15.73
2018-06-12T02:32:19.239Z,18.83
2018-06-12T02:34:48.507Z,15.13
2018-06-12T02:37:17.595Z,17.13
2018-06-12T02:39:46.678Z,21.90
2018-06-12T02:42:15.519Z,15.53
2018-06-12T02:44:44.416Z,24.93
2018-06-12T02:47:13.363Z,14.60
2018-06-12T02:49:42.287Z,19.00
2018-06-12T02:52:11.358Z,15.63
2018-06-12T02:54:40.335Z,17.60
2018-06-12T02:57:09.135Z,23.40
2018-06-12T02:59:38.093Z,15.43
2018-06-12T03:02:06.792Z,20.50
2018-06-12T03:04:35.712Z,23.63
2018-06-12T03:07:04.634Z,23.30
2018-06-12T03:09:33.689Z,32.47
2018-06-12T03:12:02.936Z,21.43
2018-06-12T03:14:32.728Z,24.97
2018-06-12T03:17:02.049Z,45.30
2018-06-12T03:19:30.978Z,48.47
2018-06-12T03:22:00.178Z,55.87
2018-06-12T03:24:29.220Z,50.63
2018-06-12T03:26:58.369Z,53.67
2018-06-12T03:29:27.167Z,53.00
2018-06-12T03:31:56.326Z,53.03
2018-06-12T03:34:25.426Z,51.97
2018-06-12T03:36:54.204Z,44.20
2018-06-12T03:39:23.262Z,37.33
2018-06-12T03:41:52.290Z,42.73
2018-06-12T03:44:21.058Z,52.73
2018-06-12T03:46:50.192Z,41.60
2018-06-12T03:49:19.092Z,34.83
2018-06-12T03:51:48.130Z,36.20
2018-06-12T03:54:17.291Z,38.37
2018-06-12T03:56:46.241Z,46.60
2018-06-12T03:59:15.176Z,38.90
2018-06-12T04:01:44.213Z,40.83
2018-06-12T04:04:13.027Z,38.73
2018-06-12T04:06:42.093Z,30.93
2018-06-12T04:09:10.986Z,28.23
2018-06-12T04:11:40.206Z,29.10
2018-06-12T04:14:09.602Z,23.07
2018-06-12T04:16:38.354Z,29.80
2018-06-12T04:19:08.094Z,24.00
2018-06-12T04:21:37.116Z,19.37
2018-06-12T04:24:06.011Z,17.47
2018-06-12T04:26:34.846Z,17.87
2018-06-12T04:29:03.684Z,19.40
2018-06-12T04:31:32.533Z,19.57
2018-06-12T04:34:01.518Z,22.47
2018-06-12T04:36:30.572Z,23.77
2018-06-12T04:38:59.834Z,25.20
2018-06-12T04:41:28.943Z,19.50
2018-06-12T04:43:57.829Z,21.07
2018-06-12T04:46:26.610Z,19.63
2018-06-12T04:48:55.435Z,21.80
2018-06-12T04:51:24.437Z,21.77
2018-06-12T04:53:53.623Z,19.60
2018-06-12T04:56:22.533Z,26.03
2018-06-12T04:58:51.449Z,17.63
2018-06-12T05:01:20.494Z,18.00
2018-06-12T05:03:49.402Z,17.50
2018-06-12T05:06:18.315Z,18.23
2018-06-12T05:08:47.170Z,16.47
2018-06-12T05:11:16.227Z,25.83
2018-06-12T05:13:45.298Z,20.00
2018-06-12T05:16:14.362Z,24.03
2018-06-12T05:18:43.686Z,25.00
2018-06-12T05:21:12.706Z,25.10
2018-06-12T05:23:41.930Z,21.40
2018-06-12T05:26:11.004Z,21.53
2018-06-12T05:28:39.862Z,18.37
2018-06-12T05:31:08.856Z,21.23
2018-06-12T05:33:37.574Z,21.57
2018-06-12T05:36:06.633Z,19.13
2018-06-12T05:38:35.778Z,15.07
2018-06-12T05:41:04.820Z,29.80
2018-06-12T05:43:33.706Z,19.77
2018-06-12T05:46:02.762Z,18.30
2018-06-12T05:48:31.707Z,19.30
2018-06-12T05:51:00.737Z,18.80
2018-06-12T05:53:29.813Z,15.90
2018-06-12T05:55:58.874Z,20.90
2018-06-12T05:58:28.055Z,17.70
2018-06-12T06:00:56.894Z,16.77
2018-06-12T06:03:25.987Z,17.13
2018-06-12T06:05:55.069Z,16.60
2018-06-12T06:08:24.039Z,18.97
2018-06-12T06:10:53.164Z,26.43
2018-06-12T06:13:22.818Z,21.20
2018-06-12T06:15:52.077Z,19.87
2018-06-12T06:18:21.312Z,19.37
2018-06-12T06:20:50.264Z,16.97
2018-06-12T06:23:19.431Z,20.33
2018-06-12T06:25:49.386Z,22.63
2018-06-12T06:28:18.320Z,25.30
2018-06-12T06:30:47.142Z,18.40
2018-06-12T06:33:16.282Z,16.03
2018-06-12T06:35:45.290Z,15.10
2018-06-12T06:38:14.260Z,12.80
2018-06-12T06:40:43.386Z,17.23
2018-06-12T06:43:12.323Z,21.50
2018-06-12T06:45:41.306Z,20.83
2018-06-12T06:48:10.302Z,17.80
2018-06-12T06:50:39.279Z,14.07
2018-06-12T06:53:08.209Z,18.27
2018-06-12T06:55:37.517Z,15.13
2018-06-12T06:58:06.330Z,15.73
2018-06-12T07:00:35.116Z,27.63
2018-06-12T07:03:04.191Z,18.90
2018-06-12T07:05:33.054Z,18.57
2018-06-12T07:08:01.914Z,15.60
2018-06-12T07:10:30.678Z,13.70
2018-06-12T07:12:59.933Z,17.73
2018-06-12T07:15:28.985Z,14.70
2018-06-12T07:17:58.077Z,29.70
2018-06-12T07:21:06.470Z,13.00
2018-06-12T07:23:35.513Z,12.60
2018-06-12T07:26:04.744Z,10.33
2018-06-12T07:28:33.682Z,13.77
2018-06-12T07:31:02.542Z,15.70
2018-06-12T07:33:31.356Z,15.23
2018-06-12T07:36:00.249Z,12.43
2018-06-12T07:38:29.556Z,15.77
2018-06-12T07:40:58.482Z,15.40
2018-06-12T07:43:27.478Z,20.27
2018-06-12T07:45:56.370Z,22.87
2018-06-12T07:48:25.242Z,34.20
2018-06-12T07:50:54.057Z,19.67
2018-06-12T07:53:22.921Z,15.40
2018-06-12T07:55:51.716Z,15.20
2018-06-12T07:58:21.186Z,12.60
2018-06-12T08:00:49.986Z,11.20
2018-06-12T08:03:19.737Z,11.07
2018-06-12T08:05:48.440Z,18.50
2018-06-12T08:08:17.273Z,11.93
2018-06-12T08:10:45.995Z,12.00
2018-06-12T08:13:14.724Z,22.33
2018-06-12T08:15:43.662Z,11.87
2018-06-12T08:18:12.478Z,16.57
2018-06-12T08:20:41.213Z,11.07
2018-06-12T08:23:09.923Z,17.90
2018-06-12T08:25:38.663Z,12.43
2018-06-12T08:28:07.413Z,13.93
2018-06-12T08:30:36.080Z,14.73
2018-06-12T08:33:05.077Z,14.47
2018-06-12T08:35:34.693Z,11.90
2018-06-12T08:38:03.456Z,11.60
2018-06-12T08:40:32.149Z,10.47
2018-06-12T08:43:00.915Z,12.50
2018-06-12T08:45:29.795Z,12.10
2018-06-12T08:47:58.723Z,15.10
2018-06-12T08:50:27.787Z,13.80
2018-06-12T08:52:56.830Z,13.53
2018-06-12T08:55:25.761Z,18.23
2018-06-12T08:57:54.469Z,13.07
2018-06-12T09:00:23.275Z,12.17
2018-06-12T09:02:52.334Z,16.83
2018-06-12T09:05:21.243Z,12.03
2018-06-12T09:07:50.081Z,14.80
2018-06-12T09:10:19.191Z,15.73
2018-06-12T09:12:48.156Z,16.23
2018-06-12T09:15:16.961Z,11.23
2018-06-12T09:17:45.701Z,17.20
2018-06-12T09:20:14.468Z,10.30
2018-06-12T09:22:43.248Z,16.97
2018-06-12T09:25:12.184Z,20.37
2018-06-12T09:27:46.010Z,16.60
2018-06-12T09:30:14.889Z,14.73
2018-06-12T09:32:43.676Z,23.43
2018-06-12T09:35:12.448Z,37.03
2018-06-12T09:37:41.173Z,20.53
2018-06-12T09:40:09.849Z,14.50
2018-06-12T09:42:38.686Z,13.87
2018-06-12T09:45:07.754Z,15.57
2018-06-12T09:47:36.674Z,11.50
2018-06-12T09:50:05.540Z,31.07
2018-06-12T09:52:34.294Z,15.40
2018-06-12T09:55:03.229Z,14.73
2018-06-12T09:57:32.765Z,26.07
2018-06-12T10:00:01.619Z,36.87
2018-06-12T10:02:30.513Z,33.00
2018-06-12T10:04:59.492Z,13.37
2018-06-12T10:07:28.253Z,49.00
2018-06-12T10:09:56.936Z,24.63
2018-06-12T10:12:25.855Z,22.90
2018-06-12T10:14:54.607Z,30.40
2018-06-12T10:17:23.326Z,18.30
2018-06-12T10:19:51.991Z,19.53
2018-06-12T10:22:20.745Z,15.80
2018-06-12T10:24:49.778Z,20.33
2018-06-12T10:27:18.886Z,17.13
2018-06-12T10:29:47.691Z,19.37
2018-06-12T10:32:16.487Z,28.80
2018-06-12T10:34:45.414Z,20.70
2018-06-12T10:37:14.191Z,17.73
2018-06-12T10:39:43.254Z,17.17
2018-06-12T10:42:11.958Z,17.03
2018-06-12T10:44:40.997Z,20.97
2018-06-12T10:47:09.784Z,16.63
2018-06-12T10:49:38.602Z,12.93
2018-06-12T10:52:07.384Z,17.60
2018-06-12T10:54:36.280Z,14.77
2018-06-12T10:57:05.270Z,11.50
2018-06-12T10:59:34.049Z,11.73
2018-06-12T11:02:04.229Z,11.63
2018-06-12T11:04:35.497Z,10.43
2018-06-12T11:07:04.749Z,12.77
2018-06-12T11:09:33.725Z,24.30
2018-06-12T11:12:02.600Z,37.40
2018-06-12T11:14:31.771Z,21.50
2018-06-12T11:17:00.485Z,22.73
2018-06-12T11:19:30.076Z,26.57
2018-06-12T11:21:59.290Z,18.23
2018-06-12T11:24:28.094Z,20.43
2018-06-12T11:26:56.970Z,11.30
2018-06-12T11:29:25.684Z,12.20
2018-06-12T11:31:54.786Z,14.87
2018-06-12T11:34:23.793Z,14.33
2018-06-12T11:36:52.729Z,13.07
2018-06-12T11:39:21.720Z,21.00
2018-06-12T11:41:51.302Z,21.63
2018-06-12T11:44:21.078Z,15.20
2018-06-12T11:46:49.798Z,22.57
2018-06-12T11:49:18.877Z,13.23
2018-06-12T11:51:47.898Z,23.07
2018-06-12T11:54:16.785Z,19.17
2018-06-12T11:56:45.622Z,16.10
2018-06-12T11:59:16.167Z,12.37
2018-06-12T12:01:48.729Z,24.70
2018-06-12T12:04:17.962Z,24.73
2018-06-12T12:06:49.417Z,50.33
2018-06-12T12:09:18.622Z,11.30
2018-06-12T12:11:47.487Z,36.07
2018-06-12T12:14:17.099Z,50.53
2018-06-12T12:16:46.110Z,21.23
2018-06-12T12:19:14.980Z,13.23
2018-06-12T12:21:43.750Z,16.00
2018-06-12T12:24:13.223Z,23.33
2018-06-12T12:26:42.196Z,12.97
2018-06-12T12:29:11.166Z,35.63
2018-06-12T12:31:40.084Z,11.10
2018-06-12T12:34:08.838Z,11.57
2018-06-12T12:36:37.632Z,10.70
2018-06-12T12:39:09.278Z,17.17
2018-06-12T12:41:38.396Z,27.00
2018-06-12T12:44:07.162Z,11.93
2018-06-12T12:46:36.065Z,19.03
2018-06-12T12:49:04.977Z,13.70
2018-06-12T12:51:34.713Z,22.43
2018-06-12T12:54:05.375Z,35.23
2018-06-12T12:56:34.840Z,14.03
2018-06-12T12:59:04.356Z,16.53
2018-06-12T13:01:33.493Z,23.63
2018-06-12T13:04:02.602Z,12.50
2018-06-12T13:06:31.299Z,11.87
2018-06-12T13:09:00.249Z,15.73
2018-06-12T13:11:29.291Z,22.97
2018-06-12T13:13:58.129Z,12.67
2018-06-12T13:16:27.050Z,13.27
2018-06-12T13:18:55.981Z,50.20
2018-06-12T13:21:25.153Z,20.67
2018-06-12T13:23:54.060Z,21.70
2018-06-12T13:26:23.009Z,9.47
2018-06-12T13:28:51.881Z,15.13
2018-06-12T13:31:20.798Z,14.53
2018-06-12T13:33:52.027Z,18.93
2018-06-12T13:36:20.737Z,27.07
2018-06-12T13:38:49.523Z,16.07
2018-06-12T13:41:18.465Z,9.97
2018-06-12T13:43:47.421Z,18.77
2018-06-12T13:46:16.642Z,19.83
2018-06-12T13:48:46.441Z,10.33
2018-06-12T13:51:15.770Z,23.43
2018-06-12T13:53:44.661Z,15.70
2018-06-12T13:56:13.500Z,16.80
2018-06-12T13:58:42.339Z,12.93
2018-06-12T14:01:11.202Z,16.93
2018-06-12T14:03:40.062Z,13.20
2018-06-12T14:06:08.762Z,21.43
2018-06-12T14:08:39.275Z,14.50
2018-06-12T14:11:08.798Z,12.73
2018-06-12T14:13:37.906Z,12.63
2018-06-12T14:16:06.719Z,18.47
2018-06-12T14:18:35.610Z,12.50
2018-06-12T14:21:04.486Z,17.57
2018-06-12T14:23:33.475Z,14.47
2018-06-12T14:26:02.617Z,11.07
2018-06-12T14:28:31.498Z,9.33
2018-06-12T14:31:00.231Z,9.13
2018-06-12T14:33:29.148Z,8.43
2018-06-12T14:35:57.909Z,8.97
2018-06-12T14:38:26.782Z,9.60
2018-06-12T14:40:55.805Z,12.90
2018-06-12T14:43:24.930Z,12.30
2018-06-12T14:45:53.903Z,9.33
2018-06-12T14:48:22.798Z,11.03
2018-06-12T14:50:51.710Z,11.33
2018-06-12T14:53:20.499Z,17.27
2018-06-12T14:55:49.591Z,13.17
2018-06-12T14:58:18.353Z,8.47
2018-06-12T15:00:47.559Z,12.87
2018-06-12T15:03:16.614Z,18.77
2018-06-12T15:05:45.310Z,13.00
2018-06-12T15:08:14.150Z,21.20
2018-06-12T15:10:43.196Z,17.30
2018-06-12T15:13:11.969Z,12.90
2018-06-12T15:15:40.809Z,12.00
2018-06-12T15:18:09.929Z,13.00
2018-06-12T15:20:38.722Z,10.87
2018-06-12T15:23:07.475Z,13.77
2018-06-12T15:25:36.280Z,13.43
2018-06-12T15:28:05.312Z,10.17
2018-06-12T15:30:34.791Z,13.03
2018-06-12T15:33:03.573Z,11.90
2018-06-12T15:35:32.595Z,13.73
2018-06-12T15:38:01.465Z,14.53
2018-06-12T15:40:30.330Z,11.10
2018-06-12T15:42:59.133Z,10.97
2018-06-12T15:45:27.996Z,10.30
2018-06-12T15:47:56.814Z,16.83
2018-06-12T15:50:25.635Z,11.40
2018-06-12T15:52:55.028Z,12.50
2018-06-12T15:55:23.939Z,10.33
2018-06-12T15:57:52.783Z,11.27
2018-06-12T16:00:21.569Z,13.23
2018-06-12T16:02:50.322Z,12.17
2018-06-12T16:05:19.182Z,12.10
2018-06-12T16:07:47.918Z,20.63
2018-06-12T16:10:16.950Z,14.70
2018-06-12T16:12:45.710Z,12.77
2018-06-12T16:15:14.718Z,13.00
2018-06-12T16:17:43.728Z,14.13
2018-06-12T16:20:12.579Z,16.20
2018-06-12T16:22:41.537Z,19.57
2018-06-12T16:25:10.334Z,12.57
2018-06-12T16:27:39.413Z,11.67
2018-06-12T16:30:08.355Z,14.93
2018-06-12T16:32:38.150Z,13.73
2018-06-12T16:35:07.446Z,21.53
2018-06-12T16:37:36.535Z,17.50
2018-06-12T16:40:05.501Z,15.97
2018-06-12T16:42:34.611Z,12.77
2018-06-12T16:45:03.767Z,14.23
2018-06-12T16:47:33.272Z,15.53
2018-06-12T16:50:02.690Z,14.83
2018-06-12T16:52:32.098Z,16.23
2018-06-12T16:55:00.922Z,17.00
2018-06-12T16:57:29.774Z,14.93
2018-06-12T16:59:58.582Z,17.07
2018-06-12T17:02:27.378Z,13.07
2018-06-12T17:04:56.210Z,14.53
2018-06-12T17:07:25.992Z,15.40
2018-06-12T17:09:55.184Z,16.13
2018-06-12T17:12:25.134Z,14.50
2018-06-12T17:14:54.378Z,12.03
2018-06-12T17:17:23.194Z,17.20
2018-06-12T17:19:52.314Z,29.50
2018-06-12T17:22:21.360Z,15.30
2018-06-12T17:24:50.480Z,14.80
2018-06-12T17:27:22.209Z,21.27
2018-06-12T17:29:51.599Z,16.33
2018-06-12T17:32:20.705Z,20.93
2018-06-12T17:34:49.768Z,19.77
2018-06-12T17:37:18.602Z,15.50
2018-06-12T17:39:48.025Z,21.10
2018-06-12T17:42:16.993Z,15.90
2018-06-12T17:44:45.981Z,22.37
2018-06-12T17:47:18.358Z,20.80
2018-06-12T17:49:47.225Z,19.50
2018-06-12T17:52:16.688Z,24.63
2018-06-12T17:54:45.786Z,16.70
2018-06-12T17:57:14.753Z,16.83
2018-06-12T17:59:43.897Z,22.30
2018-06-12T18:02:13.011Z,19.73
2018-06-12T18:04:41.773Z,21.83
2018-06-12T18:07:10.913Z,20.47
2018-06-12T18:09:40.003Z,28.80
2018-06-12T18:12:09.421Z,25.70
2018-06-12T18:14:38.418Z,19.67
2018-06-12T18:17:07.385Z,22.20
2018-06-12T18:19:37.038Z,22.03
2018-06-12T18:22:06.019Z,23.53
2018-06-12T18:24:34.900Z,20.50
2018-06-12T18:27:03.785Z,21.80
2018-06-12T18:29:33.005Z,20.90
2018-06-12T18:32:02.108Z,20.10
2018-06-12T18:34:31.496Z,27.07
2018-06-12T18:37:00.613Z,18.73
2018-06-12T18:39:30.028Z,21.83
2018-06-12T18:41:59.607Z,22.63
2018-06-12T18:44:28.512Z,29.57
2018-06-12T18:46:57.393Z,23.43
2018-06-12T18:49:26.465Z,35.63
2018-06-12T18:51:55.462Z,29.23
2018-06-12T18:54:24.686Z,25.37
2018-06-12T18:56:53.766Z,22.80
2018-06-12T18:59:22.733Z,29.10
2018-06-12T19:01:51.568Z,31.10
2018-06-12T19:04:20.421Z,25.70
2018-06-12T19:06:49.292Z,28.83
2018-06-12T19:09:18.244Z,30.73
2018-06-12T19:11:47.432Z,25.30
2018-06-12T19:14:16.184Z,25.30
2018-06-12T19:16:45.204Z,27.27
2018-06-12T19:19:14.281Z,29.77
2018-06-12T19:21:43.466Z,32.07
2018-06-12T19:24:12.544Z,38.10
2018-06-12T19:26:41.355Z,34.30
2018-06-12T19:29:10.977Z,26.53
2018-06-12T19:31:39.998Z,33.53
2018-06-12T19:34:08.922Z,31.90
2018-06-12T19:36:37.852Z,26.33
2018-06-12T19:39:08.193Z,28.10
2018-06-12T19:41:38.154Z,39.77
2018-06-12T19:44:07.095Z,32.93
2018-06-12T19:46:36.211Z,31.10
2018-06-12T19:49:05.032Z,33.43
2018-06-12T19:51:34.157Z,35.13
2018-06-12T19:54:02.960Z,27.00
2018-06-12T19:56:31.878Z,35.60
2018-06-12T19:59:01.118Z,27.83
2018-06-12T20:01:30.020Z,30.40
2018-06-12T20:03:59.035Z,25.13
2018-06-12T20:06:28.250Z,29.73
2018-06-12T20:08:57.328Z,31.63
2018-06-12T20:11:26.297Z,28.60
2018-06-12T20:13:55.545Z,35.60
2018-06-12T20:16:24.350Z,25.33
2018-06-12T20:18:53.317Z,27.70
2018-06-12T20:21:22.449Z,23.20
2018-06-12T20:23:52.602Z,26.50
2018-06-12T20:26:22.115Z,28.00
2018-06-12T20:28:52.849Z,27.87
2018-06-12T20:31:21.651Z,36.67
2018-06-12T20:33:50.587Z,27.53
2018-06-12T20:36:19.573Z,27.97
2018-06-12T20:38:48.419Z,29.23
2018-06-12T20:41:17.383Z,21.90
2018-06-12T20:43:46.433Z,21.50
2018-06-12T20:46:15.706Z,25.30
2018-06-12T20:48:44.676Z,21.40
2018-06-12T20:51:13.678Z,22.40
2018-06-12T20:53:42.800Z,30.17
2018-06-12T20:56:11.877Z,23.97
2018-06-12T20:58:40.992Z,22.13
2018-06-12T21:01:09.929Z,23.90
2018-06-12T21:03:38.748Z,27.20
2018-06-12T21:06:08.006Z,28.53
2018-06-12T21:08:37.025Z,19.73
2018-06-12T21:11:06.110Z,22.60
2018-06-12T21:13:41.318Z,20.77
2018-06-12T21:16:10.114Z,18.50
2018-06-12T21:18:38.884Z,20.90
2018-06-12T21:21:07.898Z,21.27
2018-06-12T21:23:38.570Z,20.87
2018-06-12T21:26:07.720Z,18.40
2018-06-12T21:28:36.466Z,17.30
2018-06-12T21:31:05.363Z,30.50
2018-06-12T21:33:34.202Z,20.43
2018-06-12T21:36:03.294Z,19.10
2018-06-12T21:38:32.221Z,25.27
2018-06-12T21:41:01.102Z,22.33
2018-06-12T21:43:29.964Z,22.83
2018-06-12T21:46:01.303Z,20.83
2018-06-12T21:48:30.506Z,22.93
2018-06-12T21:50:59.369Z,17.53
2018-06-12T21:53:28.197Z,24.83
2018-06-12T21:55:57.105Z,20.53
2018-06-12T21:58:25.808Z,22.03
2018-06-12T22:00:54.597Z,16.40
2018-06-12T22:03:23.602Z,16.73
2018-06-12T22:05:52.565Z,21.83
2018-06-12T22:08:21.375Z,20.53
2018-06-12T22:10:50.540Z,17.60
2018-06-12T22:13:22.158Z,22.33
2018-06-12T22:15:51.431Z,18.30
2018-06-12T22:18:20.190Z,22.70
2018-06-12T22:20:49.034Z,23.90
2018-06-12T22:23:18.049Z,16.20
2018-06-12T22:25:46.813Z,16.80
2018-06-12T22:28:15.537Z,25.10
2018-06-12T22:30:44.430Z,16.50
2018-06-12T22:33:13.522Z,18.40
2018-06-12T22:35:42.456Z,10.50
2018-06-12T22:38:11.325Z,16.40
2018-06-12T22:40:40.130Z,9.30
2018-06-12T22:43:09.132Z,9.87
2018-06-12T22:45:38.024Z,12.37
2018-06-12T22:48:06.846Z,11.60
2018-06-12T22:50:35.677Z,20.33
2018-06-12T22:53:04.469Z,14.70
2018-06-12T22:55:33.418Z,13.43
2018-06-12T22:58:02.479Z,18.80
2018-06-12T23:00:31.368Z,10.43
2018-06-12T23:03:00.161Z,9.10
2018-06-12T23:05:29.022Z,11.03
2018-06-12T23:07:57.828Z,12.43
2018-06-12T23:10:26.557Z,8.67
2018-06-12T23:12:55.505Z,7.43
2018-06-12T23:15:24.309Z,8.43
2018-06-12T23:17:54.464Z,10.90
2018-06-12T23:20:34.517Z,8.20
2018-06-12T23:23:03.508Z,15.60
2018-06-12T23:25:32.543Z,8.07
2018-06-12T23:28:01.335Z,8.37
2018-06-12T23:30:30.516Z,11.80
2018-06-12T23:32:59.377Z,11.77
2018-06-12T23:35:28.146Z,9.60
2018-06-12T23:37:57.744Z,9.10
2018-06-12T23:40:26.626Z,12.63
2018-06-12T23:42:55.690Z,11.27
2018-06-12T23:45:24.502Z,9.90
2018-06-12T23:47:53.674Z,9.90
2018-06-12T23:50:22.590Z,11.07
2018-06-12T23:52:51.351Z,15.93
2018-06-12T23:55:20.190Z,13.87
2018-06-12T23:57:48.961Z,10.87
